sensor_id;sensor_type;location;lat;lon;timestamp;pressure;altitude;pressure_sealevel;temperature;humidity
14800;BME280;7491;57.750;11.970;2022-07-04T00:01:52;74961.16;;;-142.11;100.00
14800;BME280;7491;57.750;11.970;2022-07-04T00:04:29;74950.97;;;-142.11;100.00
14800;BME280;7491;57.750;11.970;2022-07-04T00:06:56;74940.78;;;-142.11;100.00
14800;BME280;7491;57.750;11.970;2022-07-04T00:09:24;74944.84;;;-142.11;100.00
14800;BME280;7491;57.750;11.970;2022-07-04T00:11:51;74942.81;;;-142.11;100.00
14800;BME280;7491;57.750;11.970;2022-07-04T00:14:18;74934.66;;;-142.11;100.00
14800;BME280;7491;57.750;11.970;2022-07-04T00:16:44;74940.78;;;-142.11;100.00
14800;BME280;7491;57.750;11.970;2022-07-04T00:19:11;74938.75;;;-142.11;100.00
14800;BME280;7491;57.750;11.970;2022-07-04T00:21:38;74936.72;;;-142.11;100.00
14800;BME280;7491;57.750;11.970;2022-07-04T00:24:09;74932.63;;;-142.11;100.00
14800;BME280;7491;57.750;11.970;2022-07-04T00:26:37;74930.59;;;-142.11;100.00
14800;BME280;7491;57.750;11.970;2022-07-04T00:29:04;74948.94;;;-142.11;100.00
14800;BME280;7491;57.750;11.970;2022-07-04T00:31:34;74940.78;;;-142.11;100.00
14800;BME280;7491;57.750;11.970;2022-07-04T00:34:01;74961.16;;;-142.11;100.00
14800;BME280;7491;57.750;11.970;2022-07-04T00:36:28;74953.00;;;-142.11;100.00
14800;BME280;7491;57.750;11.970;2022-07-04T00:38:55;74957.09;;;-142.11;100.00
14800;BME280;7491;57.750;11.970;2022-07-04T00:41:22;75012.09;;;-142.11;100.00
14800;BME280;7491;57.750;11.970;2022-07-04T00:44:01;75040.63;;;-142.11;100.00
14800;BME280;7491;57.750;11.970;2022-07-04T00:46:32;75052.88;;;-142.11;100.00
14800;BME280;7491;57.750;11.970;2022-07-04T00:49:00;75067.13;;;-142.11;100.00
14800;BME280;7491;57.750;11.970;2022-07-04T00:51:27;75071.19;;;-142.11;100.00
14800;BME280;7491;57.750;11.970;2022-07-04T00:53:54;75083.44;;;-142.11;100.00
14800;BME280;7491;57.750;11.970;2022-07-04T00:56:22;75091.59;;;-142.11;100.00
14800;BME280;7491;57.750;11.970;2022-07-04T00:58:49;75095.66;;;-142.11;100.00
14800;BME280;7491;57.750;11.970;2022-07-04T01:01:17;75105.84;;;-142.11;100.00
14800;BME280;7491;57.750;11.970;2022-07-04T01:03:44;75109.94;;;-142.11;100.00
14800;BME280;7491;57.750;11.970;2022-07-04T01:06:11;75101.78;;;-142.11;100.00
14800;BME280;7491;57.750;11.970;2022-07-04T01:08:39;75095.66;;;-142.11;100.00
14800;BME280;7491;57.750;11.970;2022-07-04T01:11:07;75116.03;;;-142.11;100.00
14800;BME280;7491;57.750;11.970;2022-07-04T01:13:34;75122.16;;;-142.11;100.00
14800;BME280;7491;57.750;11.970;2022-07-04T01:16:02;75136.41;;;-142.11;100.00
14800;BME280;7491;57.750;11.970;2022-07-04T01:18:30;75142.53;;;-142.11;100.00
14800;BME280;7491;57.750;11.970;2022-07-04T01:20:58;75140.50;;;-142.11;100.00
14800;BME280;7491;57.750;11.970;2022-07-04T01:23:25;75138.44;;;-142.11;100.00
14800;BME280;7491;57.750;11.970;2022-07-04T01:25:52;75152.72;;;-142.11;100.00
14800;BME280;7491;57.750;11.970;2022-07-04T01:28:20;75154.75;;;-142.11;100.00
14800;BME280;7491;57.750;11.970;2022-07-04T01:30:47;75144.56;;;-142.11;100.00
14800;BME280;7491;57.750;11.970;2022-07-04T01:33:14;75173.09;;;-142.11;100.00
14800;BME280;7491;57.750;11.970;2022-07-04T01:35:45;75162.91;;;-142.11;100.00
14800;BME280;7491;57.750;11.970;2022-07-04T01:38:14;75164.94;;;-142.11;100.00
14800;BME280;7491;57.750;11.970;2022-07-04T01:40:41;75177.16;;;-142.11;100.00
14800;BME280;7491;57.750;11.970;2022-07-04T01:43:08;75183.28;;;-142.11;100.00
14800;BME280;7491;57.750;11.970;2022-07-04T01:45:35;75199.59;;;-142.11;100.00
14800;BME280;7491;57.750;11.970;2022-07-04T01:48:04;75207.75;;;-142.11;100.00
14800;BME280;7491;57.750;11.970;2022-07-04T01:50:30;75213.84;;;-142.11;100.00
14800;BME280;7491;57.750;11.970;2022-07-04T01:52:59;75222.00;;;-142.11;100.00
14800;BME280;7491;57.750;11.970;2022-07-04T01:55:28;75203.66;;;-142.11;100.00
14800;BME280;7491;57.750;11.970;2022-07-04T01:57:55;75203.66;;;-142.11;100.00
14800;BME280;7491;57.750;11.970;2022-07-04T02:00:22;75197.56;;;-142.11;100.00
14800;BME280;7491;57.750;11.970;2022-07-04T02:03:07;75201.63;;;-142.11;100.00
14800;BME280;7491;57.750;11.970;2022-07-04T02:05:35;75205.72;;;-142.11;100.00
14800;BME280;7491;57.750;11.970;2022-07-04T02:08:03;75205.72;;;-142.11;100.00
14800;BME280;7491;57.750;11.970;2022-07-04T02:10:32;75205.72;;;-142.11;100.00
14800;BME280;7491;57.750;11.970;2022-07-04T02:12:59;75205.72;;;-142.11;100.00
14800;BME280;7491;57.750;11.970;2022-07-04T02:15:29;75207.75;;;-142.11;100.00
14800;BME280;7491;57.750;11.970;2022-07-04T02:17:59;75207.75;;;-142.11;100.00
14800;BME280;7491;57.750;11.970;2022-07-04T02:20:26;75203.66;;;-142.11;100.00
14800;BME280;7491;57.750;11.970;2022-07-04T02:22:54;75197.56;;;-142.11;100.00
14800;BME280;7491;57.750;11.970;2022-07-04T02:25:21;75195.50;;;-142.11;100.00
14800;BME280;7491;57.750;11.970;2022-07-04T02:27:49;75199.59;;;-142.11;100.00
14800;BME280;7491;57.750;11.970;2022-07-04T02:30:15;75193.47;;;-142.11;100.00
14800;BME280;7491;57.750;11.970;2022-07-04T02:32:42;75189.41;;;-142.11;100.00
14800;BME280;7491;57.750;11.970;2022-07-04T02:35:09;75195.50;;;-142.11;100.00
14800;BME280;7491;57.750;11.970;2022-07-04T02:37:39;75189.41;;;-142.11;100.00
14800;BME280;7491;57.750;11.970;2022-07-04T02:40:07;75185.31;;;-142.11;100.00
14800;BME280;7491;57.750;11.970;2022-07-04T02:42:35;75197.56;;;-142.11;100.00
14800;BME280;7491;57.750;11.970;2022-07-04T02:45:05;75197.56;;;-142.11;100.00
14800;BME280;7491;57.750;11.970;2022-07-04T02:47:32;75201.63;;;-142.11;100.00
14800;BME280;7491;57.750;11.970;2022-07-04T02:50:00;75185.31;;;-142.11;100.00
14800;BME280;7491;57.750;11.970;2022-07-04T02:52:28;75183.28;;;-142.11;100.00
14800;BME280;7491;57.750;11.970;2022-07-04T02:54:55;75183.28;;;-142.11;100.00
14800;BME280;7491;57.750;11.970;2022-07-04T02:57:22;75181.25;;;-142.11;100.00
14800;BME280;7491;57.750;11.970;2022-07-04T02:59:48;75169.03;;;-142.11;100.00
14800;BME280;7491;57.750;11.970;2022-07-04T03:02:17;75173.09;;;-142.11;100.00
14800;BME280;7491;57.750;11.970;2022-07-04T03:04:43;75164.94;;;-142.11;100.00
14800;BME280;7491;57.750;11.970;2022-07-04T03:07:10;75166.97;;;-142.11;100.00
14800;BME280;7491;57.750;11.970;2022-07-04T03:09:37;75160.88;;;-142.11;100.00
14800;BME280;7491;57.750;11.970;2022-07-04T03:12:05;75158.84;;;-142.11;100.00
14800;BME280;7491;57.750;11.970;2022-07-04T03:14:32;75150.69;;;-142.11;100.00
14800;BME280;7491;57.750;11.970;2022-07-04T03:16:58;75171.06;;;-142.11;100.00
14800;BME280;7491;57.750;11.970;2022-07-04T03:19:27;75156.78;;;-142.11;100.00
14800;BME280;7491;57.750;11.970;2022-07-04T03:21:53;75154.75;;;-142.11;100.00
14800;BME280;7491;57.750;11.970;2022-07-04T03:24:22;75136.41;;;-142.11;100.00
14800;BME280;7491;57.750;11.970;2022-07-04T03:26:49;75132.34;;;-142.11;100.00
14800;BME280;7491;57.750;11.970;2022-07-04T03:29:16;75130.31;;;-142.11;100.00
14800;BME280;7491;57.750;11.970;2022-07-04T03:31:43;75128.25;;;-142.11;100.00
14800;BME280;7491;57.750;11.970;2022-07-04T03:34:09;75138.44;;;-142.11;100.00
14800;BME280;7491;57.750;11.970;2022-07-04T03:36:38;75134.38;;;-142.11;100.00
14800;BME280;7491;57.750;11.970;2022-07-04T03:39:05;75138.44;;;-142.11;100.00
14800;BME280;7491;57.750;11.970;2022-07-04T03:41:32;75130.31;;;-142.11;100.00
14800;BME280;7491;57.750;11.970;2022-07-04T03:43:59;75132.34;;;-142.11;100.00
14800;BME280;7491;57.750;11.970;2022-07-04T03:46:25;75120.13;;;-142.11;100.00
14800;BME280;7491;57.750;11.970;2022-07-04T03:48:52;75126.22;;;-142.11;100.00
14800;BME280;7491;57.750;11.970;2022-07-04T03:51:20;75109.94;;;-142.11;100.00
14800;BME280;7491;57.750;11.970;2022-07-04T03:53:49;75118.06;;;-142.11;100.00
14800;BME280;7491;57.750;11.970;2022-07-04T03:56:16;75114.00;;;-142.11;100.00
14800;BME280;7491;57.750;11.970;2022-07-04T03:58:43;75109.94;;;-142.11;100.00
14800;BME280;7491;57.750;11.970;2022-07-04T04:01:14;75114.00;;;-142.11;100.00
14800;BME280;7491;57.750;11.970;2022-07-04T04:03:43;75103.81;;;-142.11;100.00
14800;BME280;7491;57.750;11.970;2022-07-04T04:06:27;75093.63;;;-142.11;100.00
14800;BME280;7491;57.750;11.970;2022-07-04T04:08:56;75095.66;;;-142.11;100.00
14800;BME280;7491;57.750;11.970;2022-07-04T04:11:23;75089.53;;;-142.11;100.00
14800;BME280;7491;57.750;11.970;2022-07-04T04:13:50;75087.50;;;-142.11;100.00
14800;BME280;7491;57.750;11.970;2022-07-04T04:16:17;75095.66;;;-142.11;100.00
14800;BME280;7491;57.750;11.970;2022-07-04T04:18:43;75095.66;;;-142.11;100.00
14800;BME280;7491;57.750;11.970;2022-07-04T04:21:10;75087.50;;;-142.11;100.00
14800;BME280;7491;57.750;11.970;2022-07-04T04:23:37;75073.25;;;-142.11;100.00
14800;BME280;7491;57.750;11.970;2022-07-04T04:26:05;75075.28;;;-142.11;100.00
14800;BME280;7491;57.750;11.970;2022-07-04T04:28:31;75077.31;;;-142.11;100.00
14800;BME280;7491;57.750;11.970;2022-07-04T04:30:58;75091.59;;;-142.11;100.00
14800;BME280;7491;57.750;11.970;2022-07-04T04:33:25;75069.16;;;-142.11;100.00
14800;BME280;7491;57.750;11.970;2022-07-04T04:35:52;75071.19;;;-142.11;100.00
14800;BME280;7491;57.750;11.970;2022-07-04T04:38:18;75083.44;;;-142.11;100.00
14800;BME280;7491;57.750;11.970;2022-07-04T04:40:45;75077.31;;;-142.11;100.00
14800;BME280;7491;57.750;11.970;2022-07-04T04:43:13;75079.34;;;-142.11;100.00
14800;BME280;7491;57.750;11.970;2022-07-04T04:45:40;75077.31;;;-142.11;100.00
14800;BME280;7491;57.750;11.970;2022-07-04T04:48:06;75077.31;;;-142.11;100.00
14800;BME280;7491;57.750;11.970;2022-07-04T04:50:33;75067.13;;;-142.11;100.00
14800;BME280;7491;57.750;11.970;2022-07-04T04:53:00;75075.28;;;-142.11;100.00
14800;BME280;7491;57.750;11.970;2022-07-04T04:55:27;75079.34;;;-142.11;100.00
14800;BME280;7491;57.750;11.970;2022-07-04T04:57:54;75067.13;;;-142.11;100.00
14800;BME280;7491;57.750;11.970;2022-07-04T05:00:22;75063.06;;;-142.11;100.00
14800;BME280;7491;57.750;11.970;2022-07-04T05:02:48;75052.88;;;-142.11;100.00
14800;BME280;7491;57.750;11.970;2022-07-04T05:05:15;75046.75;;;-142.11;100.00
14800;BME280;7491;57.750;11.970;2022-07-04T05:07:43;75046.75;;;-142.11;100.00
14800;BME280;7491;57.750;11.970;2022-07-04T05:10:10;75046.75;;;-142.11;100.00
14800;BME280;7491;57.750;11.970;2022-07-04T05:12:37;75052.88;;;-142.11;100.00
14800;BME280;7491;57.750;11.970;2022-07-04T05:15:04;75063.06;;;-142.11;100.00
14800;BME280;7491;57.750;11.970;2022-07-04T05:17:33;75075.28;;;-142.11;100.00
14800;BME280;7491;57.750;11.970;2022-07-04T05:19:59;75073.25;;;-142.11;100.00
14800;BME280;7491;57.750;11.970;2022-07-04T05:22:26;75079.34;;;-142.11;100.00
14800;BME280;7491;57.750;11.970;2022-07-04T05:24:53;75071.19;;;-142.11;100.00
14800;BME280;7491;57.750;11.970;2022-07-04T05:27:20;75075.28;;;-142.11;100.00
14800;BME280;7491;57.750;11.970;2022-07-04T05:29:46;75065.09;;;-142.11;100.00
14800;BME280;7491;57.750;11.970;2022-07-04T05:32:13;75061.00;;;-142.11;100.00
14800;BME280;7491;57.750;11.970;2022-07-04T05:34:41;75052.88;;;-142.11;100.00
14800;BME280;7491;57.750;11.970;2022-07-04T05:37:08;75046.75;;;-142.11;100.00
14800;BME280;7491;57.750;11.970;2022-07-04T05:39:35;75034.53;;;-142.11;100.00
14800;BME280;7491;57.750;11.970;2022-07-04T05:42:02;75034.53;;;-142.11;100.00
14800;BME280;7491;57.750;11.970;2022-07-04T05:44:28;75024.34;;;-142.11;100.00
14800;BME280;7491;57.750;11.970;2022-07-04T05:46:55;75024.34;;;-142.11;100.00
14800;BME280;7491;57.750;11.970;2022-07-04T05:49:22;75018.22;;;-142.11;100.00
14800;BME280;7491;57.750;11.970;2022-07-04T05:51:50;75003.97;;;-142.11;100.00
14800;BME280;7491;57.750;11.970;2022-07-04T05:54:17;74993.75;;;-142.11;100.00
14800;BME280;7491;57.750;11.970;2022-07-04T05:56:44;74995.81;;;-142.11;100.00
14800;BME280;7491;57.750;11.970;2022-07-04T05:59:10;74999.88;;;-142.11;100.00
14800;BME280;7491;57.750;11.970;2022-07-04T06:01:37;75010.06;;;-142.11;100.00
14800;BME280;7491;57.750;11.970;2022-07-04T06:04:05;74999.88;;;-142.11;100.00
14800;BME280;7491;57.750;11.970;2022-07-04T06:06:32;75003.97;;;-142.11;100.00
14800;BME280;7491;57.750;11.970;2022-07-04T06:09:00;75012.09;;;-142.11;100.00
14800;BME280;7491;57.750;11.970;2022-07-04T06:11:28;75016.19;;;-142.11;100.00
14800;BME280;7491;57.750;11.970;2022-07-04T06:13:55;75008.03;;;-142.11;100.00
14800;BME280;7491;57.750;11.970;2022-07-04T06:16:23;75001.91;;;-142.11;100.00
14800;BME280;7491;57.750;11.970;2022-07-04T06:18:50;74981.53;;;-142.11;100.00
14800;BME280;7491;57.750;11.970;2022-07-04T06:21:17;74953.00;;;-142.11;100.00
14800;BME280;7491;57.750;11.970;2022-07-04T06:23:43;74920.41;;;-142.11;100.00
14800;BME280;7491;57.750;11.970;2022-07-04T06:26:13;74904.09;;;-142.11;100.00
14800;BME280;7491;57.750;11.970;2022-07-04T06:28:40;74900.03;;;-142.11;100.00
14800;BME280;7491;57.750;11.970;2022-07-04T06:31:07;74883.72;;;-142.11;100.00
14800;BME280;7491;57.750;11.970;2022-07-04T06:33:34;74918.38;;;-142.11;100.00
14800;BME280;7491;57.750;11.970;2022-07-04T06:36:21;74959.13;;;-142.11;100.00
14800;BME280;7491;57.750;11.970;2022-07-04T06:38:47;74938.75;;;-142.11;100.00
14800;BME280;7491;57.750;11.970;2022-07-04T06:41:15;74908.19;;;-142.11;100.00
14800;BME280;7491;57.750;11.970;2022-07-04T06:43:42;74904.09;;;-142.11;100.00
14800;BME280;7491;57.750;11.970;2022-07-04T06:46:09;74875.56;;;-142.11;100.00
14800;BME280;7491;57.750;11.970;2022-07-04T06:48:36;74859.28;;;-142.11;100.00
14800;BME280;7491;57.750;11.970;2022-07-04T06:51:03;74847.03;;;-142.11;100.00
14800;BME280;7491;57.750;11.970;2022-07-04T06:53:29;74849.09;;;-142.11;100.00
14800;BME280;7491;57.750;11.970;2022-07-04T06:55:56;74834.81;;;-142.11;100.00
14800;BME280;7491;57.750;11.970;2022-07-04T06:58:25;74845.00;;;-142.11;100.00
14800;BME280;7491;57.750;11.970;2022-07-04T07:00:51;74826.66;;;-142.11;100.00
14800;BME280;7491;57.750;11.970;2022-07-04T07:03:18;74828.72;;;-142.11;100.00
14800;BME280;7491;57.750;11.970;2022-07-04T07:05:45;74842.97;;;-142.11;100.00
14800;BME280;7491;57.750;11.970;2022-07-04T07:08:12;74820.56;;;-142.11;100.00
14800;BME280;7491;57.750;11.970;2022-07-04T07:10:39;74820.56;;;-142.11;100.00
14800;BME280;7491;57.750;11.970;2022-07-04T07:13:06;74826.66;;;-142.11;100.00
14800;BME280;7491;57.750;11.970;2022-07-04T07:15:35;74824.63;;;-142.11;100.00
14800;BME280;7491;57.750;11.970;2022-07-04T07:18:02;74785.91;;;-142.11;100.00
14800;BME280;7491;57.750;11.970;2022-07-04T07:20:29;74771.66;;;-142.11;100.00
14800;BME280;7491;57.750;11.970;2022-07-04T07:22:56;74749.25;;;-142.11;100.00
14800;BME280;7491;57.750;11.970;2022-07-04T07:25:23;74785.91;;;-142.11;100.00
14800;BME280;7491;57.750;11.970;2022-07-04T07:27:49;74820.56;;;-142.11;100.00
14800;BME280;7491;57.750;11.970;2022-07-04T07:30:16;74808.31;;;-142.11;100.00
14800;BME280;7491;57.750;11.970;2022-07-04T07:32:44;74769.63;;;-142.11;100.00
14800;BME280;7491;57.750;11.970;2022-07-04T07:35:11;74779.81;;;-142.11;100.00
14800;BME280;7491;57.750;11.970;2022-07-04T07:37:38;74771.66;;;-142.11;100.00
14800;BME280;7491;57.750;11.970;2022-07-04T07:40:06;74761.47;;;-142.11;100.00
14800;BME280;7491;57.750;11.970;2022-07-04T07:42:34;74773.69;;;-142.11;100.00
14800;BME280;7491;57.750;11.970;2022-07-04T07:45:01;74761.47;;;-142.11;100.00
14800;BME280;7491;57.750;11.970;2022-07-04T07:47:28;74755.34;;;-142.11;100.00
14800;BME280;7491;57.750;11.970;2022-07-04T07:49:57;74741.09;;;-142.11;100.00
14800;BME280;7491;57.750;11.970;2022-07-04T07:52:23;74724.78;;;-142.11;100.00
14800;BME280;7491;57.750;11.970;2022-07-04T07:54:50;74702.38;;;-142.11;100.00
14800;BME280;7491;57.750;11.970;2022-07-04T07:57:17;74712.56;;;-142.11;100.00
14800;BME280;7491;57.750;11.970;2022-07-04T07:59:44;74692.19;;;-142.11;100.00
14800;BME280;7491;57.750;11.970;2022-07-04T08:02:11;74728.88;;;-142.11;100.00
14800;BME280;7491;57.750;11.970;2022-07-04T08:04:37;74743.13;;;-142.11;100.00
14800;BME280;7491;57.750;11.970;2022-07-04T08:07:07;74757.38;;;-142.11;100.00
14800;BME280;7491;57.750;11.970;2022-07-04T08:09:34;74783.88;;;-142.11;100.00
14800;BME280;7491;57.750;11.970;2022-07-04T08:12:03;74814.44;;;-142.11;100.00
14800;BME280;7491;57.750;11.970;2022-07-04T08:14:31;74810.38;;;-142.11;100.00
14800;BME280;7491;57.750;11.970;2022-07-04T08:16:58;74802.22;;;-142.11;100.00
14800;BME280;7491;57.750;11.970;2022-07-04T08:19:25;74773.69;;;-142.11;100.00
14800;BME280;7491;57.750;11.970;2022-07-04T08:21:53;74753.31;;;-142.11;100.00
14800;BME280;7491;57.750;11.970;2022-07-04T08:24:21;74785.91;;;-142.11;100.00
14800;BME280;7491;57.750;11.970;2022-07-04T08:26:48;74810.38;;;-142.11;100.00
14800;BME280;7491;57.750;11.970;2022-07-04T08:29:17;74818.53;;;-142.11;100.00
14800;BME280;7491;57.750;11.970;2022-07-04T08:31:43;74808.31;;;-142.11;100.00
14800;BME280;7491;57.750;11.970;2022-07-04T08:34:10;74783.88;;;-142.11;100.00
14800;BME280;7491;57.750;11.970;2022-07-04T08:36:37;74749.25;;;-142.11;100.00
14800;BME280;7491;57.750;11.970;2022-07-04T08:39:04;74745.16;;;-142.11;100.00
14800;BME280;7491;57.750;11.970;2022-07-04T08:41:36;74767.56;;;-142.11;100.00
14800;BME280;7491;57.750;11.970;2022-07-04T08:44:04;74747.19;;;-142.11;100.00
14800;BME280;7491;57.750;11.970;2022-07-04T08:46:33;74737.00;;;-142.11;100.00
14800;BME280;7491;57.750;11.970;2022-07-04T08:49:02;74753.31;;;-142.11;100.00
14800;BME280;7491;57.750;11.970;2022-07-04T08:51:40;74743.13;;;-142.11;100.00
14800;BME280;7491;57.750;11.970;2022-07-04T08:54:11;74743.13;;;-142.11;100.00
14800;BME280;7491;57.750;11.970;2022-07-04T08:56:55;74745.16;;;-142.11;100.00
14800;BME280;7491;57.750;11.970;2022-07-04T08:59:39;74749.25;;;-142.11;100.00
14800;BME280;7491;57.750;11.970;2022-07-04T09:02:11;74708.47;;;-142.11;100.00
14800;BME280;7491;57.750;11.970;2022-07-04T09:04:40;74700.34;;;-142.11;100.00
14800;BME280;7491;57.750;11.970;2022-07-04T09:07:10;74679.97;;;-142.11;100.00
14800;BME280;7491;57.750;11.970;2022-07-04T09:09:37;74679.97;;;-142.11;100.00
14800;BME280;7491;57.750;11.970;2022-07-04T09:12:07;74653.47;;;-142.11;100.00
14800;BME280;7491;57.750;11.970;2022-07-04T09:14:34;74639.22;;;-142.11;100.00
14800;BME280;7491;57.750;11.970;2022-07-04T09:17:01;74612.72;;;-142.11;100.00
14800;BME280;7491;57.750;11.970;2022-07-04T09:19:29;74600.50;;;-142.11;100.00
14800;BME280;7491;57.750;11.970;2022-07-04T09:21:55;74622.91;;;-142.11;100.00
14800;BME280;7491;57.750;11.970;2022-07-04T09:24:47;74598.44;;;-142.11;100.00
14800;BME280;7491;57.750;11.970;2022-07-04T09:27:31;74626.97;;;-142.11;100.00
14800;BME280;7491;57.750;11.970;2022-07-04T09:29:59;74651.44;;;-142.11;100.00
14800;BME280;7491;57.750;11.970;2022-07-04T09:32:36;74684.03;;;-142.11;100.00
14800;BME280;7491;57.750;11.970;2022-07-04T09:35:05;74677.91;;;-142.11;100.00
14800;BME280;7491;57.750;11.970;2022-07-04T09:37:37;74663.66;;;-142.11;100.00
14800;BME280;7491;57.750;11.970;2022-07-04T09:40:08;74651.44;;;-142.11;100.00
14800;BME280;7491;57.750;11.970;2022-07-04T09:42:38;74655.50;;;-142.11;100.00
14800;BME280;7491;57.750;11.970;2022-07-04T09:45:08;74667.72;;;-142.11;100.00
14800;BME280;7491;57.750;11.970;2022-07-04T09:47:36;74694.22;;;-142.11;100.00
14800;BME280;7491;57.750;11.970;2022-07-04T09:50:04;74686.06;;;-142.11;100.00
14800;BME280;7491;57.750;11.970;2022-07-04T09:52:32;74671.81;;;-142.11;100.00
14800;BME280;7491;57.750;11.970;2022-07-04T09:55:09;74675.88;;;-142.11;100.00
14800;BME280;7491;57.750;11.970;2022-07-04T09:57:37;74671.81;;;-142.11;100.00
14800;BME280;7491;57.750;11.970;2022-07-04T10:00:17;74643.28;;;-142.11;100.00
14800;BME280;7491;57.750;11.970;2022-07-04T10:02:45;74614.75;;;-142.11;100.00
14800;BME280;7491;57.750;11.970;2022-07-04T10:05:11;74600.50;;;-142.11;100.00
14800;BME280;7491;57.750;11.970;2022-07-04T10:07:39;74590.31;;;-142.11;100.00
14800;BME280;7491;57.750;11.970;2022-07-04T10:10:31;74565.84;;;-142.11;100.00
14800;BME280;7491;57.750;11.970;2022-07-04T10:13:02;74559.75;;;-142.11;100.00
14800;BME280;7491;57.750;11.970;2022-07-04T10:15:30;74529.19;;;-142.11;100.00
14800;BME280;7491;57.750;11.970;2022-07-04T10:17:58;74533.25;;;-142.11;100.00
14800;BME280;7491;57.750;11.970;2022-07-04T10:20:25;74549.56;;;-142.11;100.00
14800;BME280;7491;57.750;11.970;2022-07-04T10:22:52;74553.63;;;-142.11;100.00
14800;BME280;7491;57.750;11.970;2022-07-04T10:25:19;74559.75;;;-142.11;100.00
14800;BME280;7491;57.750;11.970;2022-07-04T10:27:45;74555.66;;;-142.11;100.00
14800;BME280;7491;57.750;11.970;2022-07-04T10:30:21;74571.97;;;-142.11;100.00
14800;BME280;7491;57.750;11.970;2022-07-04T10:32:50;74578.06;;;-142.11;100.00
14800;BME280;7491;57.750;11.970;2022-07-04T10:38:06;74539.38;;;-142.11;100.00
14800;BME280;7491;57.750;11.970;2022-07-04T10:40:45;74521.03;;;-142.11;100.00
14800;BME280;7491;57.750;11.970;2022-07-04T10:46:33;74549.56;;;-142.11;100.00
14800;BME280;7491;57.750;11.970;2022-07-04T10:49:02;74551.59;;;-142.11;100.00
14800;BME280;7491;57.750;11.970;2022-07-04T10:51:47;74561.78;;;-142.11;100.00
14800;BME280;7491;57.750;11.970;2022-07-04T10:54:16;74569.94;;;-142.11;100.00
14800;BME280;7491;57.750;11.970;2022-07-04T10:56:49;74580.13;;;-142.11;100.00
14800;BME280;7491;57.750;11.970;2022-07-04T10:59:18;74604.56;;;-142.11;100.00
14800;BME280;7491;57.750;11.970;2022-07-04T11:01:51;74604.56;;;-142.11;100.00
14800;BME280;7491;57.750;11.970;2022-07-04T11:04:59;74574.00;;;-142.11;100.00
14800;BME280;7491;57.750;11.970;2022-07-04T11:07:55;74559.75;;;-142.11;100.00
14800;BME280;7491;57.750;11.970;2022-07-04T11:10:23;74553.63;;;-142.11;100.00
14800;BME280;7491;57.750;11.970;2022-07-04T11:13:08;74567.88;;;-142.11;100.00
14800;BME280;7491;57.750;11.970;2022-07-04T11:16:00;74571.97;;;-142.11;100.00
14800;BME280;7491;57.750;11.970;2022-07-04T11:18:30;74582.16;;;-142.11;100.00
14800;BME280;7491;57.750;11.970;2022-07-04T11:20:56;74592.34;;;-142.11;100.00
14800;BME280;7491;57.750;11.970;2022-07-04T11:23:23;74590.31;;;-142.11;100.00
14800;BME280;7491;57.750;11.970;2022-07-04T11:25:50;74602.53;;;-142.11;100.00
14800;BME280;7491;57.750;11.970;2022-07-04T11:28:20;74626.97;;;-142.11;100.00
14800;BME280;7491;57.750;11.970;2022-07-04T11:30:49;74694.22;;;-142.11;100.00
14800;BME280;7491;57.750;11.970;2022-07-04T11:33:17;74840.94;;;-142.11;100.00
14800;BME280;7491;57.750;11.970;2022-07-04T11:36:02;74932.63;;;-142.11;100.00
14800;BME280;7491;57.750;11.970;2022-07-04T11:38:52;74995.81;;;-142.11;100.00
14800;BME280;7491;57.750;11.970;2022-07-04T11:41:21;75016.19;;;-142.11;100.00
14800;BME280;7491;57.750;11.970;2022-07-04T11:44:07;75034.53;;;-142.11;100.00
14800;BME280;7491;57.750;11.970;2022-07-04T11:47:04;75038.59;;;-142.11;100.00
14800;BME280;7491;57.750;11.970;2022-07-04T11:49:31;75032.47;;;-142.11;100.00
14800;BME280;7491;57.750;11.970;2022-07-04T11:52:00;74997.84;;;-142.11;100.00
14800;BME280;7491;57.750;11.970;2022-07-04T11:54:27;74985.63;;;-142.11;100.00
14800;BME280;7491;57.750;11.970;2022-07-04T11:57:08;74983.56;;;-142.11;100.00
14800;BME280;7491;57.750;11.970;2022-07-04T11:59:36;74985.63;;;-142.11;100.00
14800;BME280;7491;57.750;11.970;2022-07-04T12:02:15;74973.38;;;-142.11;100.00
14800;BME280;7491;57.750;11.970;2022-07-04T12:04:42;74959.13;;;-142.11;100.00
14800;BME280;7491;57.750;11.970;2022-07-04T12:07:12;74942.81;;;-142.11;100.00
14800;BME280;7491;57.750;11.970;2022-07-04T12:09:39;74885.75;;;-142.11;100.00
14800;BME280;7491;57.750;11.970;2022-07-04T12:12:07;74879.66;;;-142.11;100.00
14800;BME280;7491;57.750;11.970;2022-07-04T12:14:34;74863.34;;;-142.11;100.00
14800;BME280;7491;57.750;11.970;2022-07-04T12:17:14;74845.00;;;-142.11;100.00
14800;BME280;7491;57.750;11.970;2022-07-04T12:19:54;74855.19;;;-142.11;100.00
14800;BME280;7491;57.750;11.970;2022-07-04T12:22:41;74865.38;;;-142.11;100.00
14800;BME280;7491;57.750;11.970;2022-07-04T12:25:21;74859.28;;;-142.11;100.00
14800;BME280;7491;57.750;11.970;2022-07-04T12:27:52;74873.53;;;-142.11;100.00
14800;BME280;7491;57.750;11.970;2022-07-04T12:30:19;74832.78;;;-142.11;100.00
14800;BME280;7491;57.750;11.970;2022-07-04T12:32:48;74851.13;;;-142.11;100.00
14800;BME280;7491;57.750;11.970;2022-07-04T12:35:38;74832.78;;;-142.11;100.00
14800;BME280;7491;57.750;11.970;2022-07-04T12:38:10;74808.31;;;-142.11;100.00
14800;BME280;7491;57.750;11.970;2022-07-04T12:40:49;74802.22;;;-142.11;100.00
14800;BME280;7491;57.750;11.970;2022-07-04T12:43:17;74790.00;;;-142.11;100.00
14800;BME280;7491;57.750;11.970;2022-07-04T12:45:46;74790.00;;;-142.11;100.00
14800;BME280;7491;57.750;11.970;2022-07-04T12:48:17;74775.72;;;-142.11;100.00